MSC Regina — 3FGF9 — position and weather

sailwx.info

Track history (hours):
 
Tides and Currents Weather Stations Pressure Air Temp Water Temp Dewpoint Dewpoint Depression Visibility Wind Speed Wind Dir Waves Ship Positions

MSC Regina

Last reported at 2015-May-23 15:03 UTC. Time now 2015-May-26 11:49 UTC.
Position N 40°04' W 030°49'.

Length 259 m; draft 10.3 m.

Type: Ship (hazmat cat A). MMSI: 357331980.

Date/timePositionNaut miles runAvg speedWind from/ knotsBaromVisibWave heightAir tempDewpointWater temp
2015-May-23 15:03N 40°04' W 030°49'1419.7
2015-May-23 14:22N 40°02' W 030°31'2419.8
2015-May-23 13:10N 39°60' W 030°01'3219.7
2015-May-23 11:33N 39°55' W 029°20'1919.5
2015-May-23 10:33N 39°53' W 028°54'2019.8
2015-May-23 09:33N 39°50' W 028°29'2019.8
2015-May-23 08:33N 39°48' W 028°03'2019.5
2015-May-23 07:32N 39°46' W 027°38'2619.3
2015-May-23 06:10N 39°42' W 027°04'1619.4
2015-May-23 05:20N 39°39' W 026°43'13519.5
2015-May-22 22:23N 39°23' W 023°48'1620.0
2015-May-22 21:33N 39°21' W 023°27'58619.5
2015-May-21 15:33N 38°07' W 011°02'1918.9
2015-May-21 14:33N 38°04' W 010°38'1918.8
2015-May-21 13:33N 38°02' W 010°15'1918.7
2015-May-21 12:33N 37°59' W 009°51'1919.0
2015-May-21 11:33N 37°57' W 009°27'1918.9
2015-May-21 10:33N 37°55' W 009°03'10 9.8
2015-May-21 09:32N 37°56' W 008°51'0 0.0
2015-May-21 08:32N 37°56' W 008°51'0 0.0
2015-May-21 07:32N 37°56' W 008°51'0 0.0
2015-May-21 06:32N 37°56' W 008°51'0 0.0
2015-May-21 05:32N 37°56' W 008°51'0 0.0
2015-May-21 04:32N 37°56' W 008°51'0 0.0
2015-May-21 03:32N 37°56' W 008°51'0 0.0
2015-May-21 02:32N 37°56' W 008°51'0 0.0
2015-May-21 01:32N 37°56' W 008°51'0 0.0
2015-May-21 00:32N 37°56' W 008°51'0 0.0
2015-May-20 23:32N 37°56' W 008°51'0 0.0
2015-May-20 22:32N 37°56' W 008°51'0 0.0
2015-May-20 21:32N 37°56' W 008°51'0 0.0
2015-May-20 20:29N 37°56' W 008°51'0 0.3
2015-May-20 19:33N 37°56' W 008°51'4 4.2
2015-May-20 18:33N 37°51' W 008°52'1 1.2
2015-May-20 17:33N 37°53' W 008°51'0 0.0
2015-May-20 16:33N 37°53' W 008°51'0 0.0
2015-May-20 15:32N 37°53' W 008°51'0 0.0
2015-May-20 14:32N 37°53' W 008°51'0 0.0
2015-May-20 13:32N 37°53' W 008°51'0 0.0
2015-May-20 12:32N 37°53' W 008°51'0 0.0
2015-May-20 11:32N 37°53' W 008°51'0 0.0
2015-May-20 10:32N 37°53' W 008°51'0 0.0
2015-May-20 09:32N 37°53' W 008°51'0 0.0
2015-May-20 08:32N 37°53' W 008°51'0 0.0
2015-May-20 07:32N 37°53' W 008°51'0 0.1
2015-May-20 06:29N 37°53' W 008°52'0 0.0
2015-May-20 05:32N 37°53' W 008°52'0 0.1
2015-May-20 04:32N 37°53' W 008°51'0 0.0
2015-May-20 03:32N 37°53' W 008°52'0 0.1
2015-May-20 02:32N 37°53' W 008°51'0 0.1
2015-May-20 01:32N 37°53' W 008°52'0 0.0
2015-May-20 00:32N 37°53' W 008°51'0 0.0
2015-May-19 23:32N 37°53' W 008°51'0 0.0
2015-May-19 22:32N 37°53' W 008°51'0 0.0
2015-May-19 21:32N 37°53' W 008°52'0 0.0
2015-May-19 20:32N 37°53' W 008°52'0 0.1
2015-May-19 19:32N 37°53' W 008°51'0 0.0
2015-May-19 18:32N 37°53' W 008°51'0 0.0
2015-May-19 17:32N 37°53' W 008°51'0 0.1
2015-May-19 16:32N 37°53' W 008°51'0 0.0
2015-May-19 15:29N 37°53' W 008°51'0 0.0
2015-May-19 14:32N 37°53' W 008°51'0 0.0
2015-May-19 13:32N 37°53' W 008°51'0 0.0
2015-May-19 12:32N 37°53' W 008°51'0 0.1
2015-May-19 11:32N 37°53' W 008°51'0 0.1
2015-May-19 10:32N 37°53' W 008°51'0 0.0
2015-May-19 09:32N 37°53' W 008°51'0 0.1
2015-May-19 08:32N 37°53' W 008°51'3 2.7
2015-May-19 07:33N 37°50' W 008°52'8 7.3
2015-May-19 06:31N 37°43' W 008°56'9 7.0
2015-May-19 05:14N 37°35' W 009°01'5 7.0
2015-May-19 04:32N 37°31' W 009°04'8 7.9
2015-May-19 03:33N 37°24' W 009°08'9 8.0
2015-May-19 02:26N 37°16' W 009°13'11 8.2
2015-May-19 01:07N 37°06' W 009°18'7 6.9
2015-May-19 00:06N 36°59' W 009°21'4 7.0
2015-May-18 23:33N 36°55' W 009°20'15 7.4
2015-May-18 21:30N 36°44' W 009°07'8 8.3
2015-May-18 20:33N 36°41' W 008°58'7 7.4
2015-May-18 19:33N 36°39' W 008°49'7 6.7
2015-May-18 18:33N 36°37' W 008°41'10 7.0
2015-May-18 17:05N 36°33' W 008°29'12 7.6
2015-May-18 15:32N 36°30' W 008°15'12 8.3
2015-May-18 14:08N 36°26' W 008°02'1118.6
2015-May-18 13:34N 36°23' W 007°49'10919.9
2015-May-18 08:05N 35°58' W 005°38'1018.1
2015-May-18 07:33N 36°00' W 005°26'12019.2
2015-May-18 01:18N 36°20' W 002°60'1620.8
2015-May-18 00:33N 36°23' W 002°41'2121.0
2015-May-17 23:33N 36°26' W 002°15'2120.7
2015-May-17 22:33N 36°38' W 001°54'2120.8
2015-May-17 21:33N 36°52' W 001°34'2221.0
2015-May-17 20:29N 37°07' W 001°14'1920.4
2015-May-17 19:33N 37°19' W 000°56'2020.2
2015-May-17 18:33N 37°32' W 000°37'2019.8
2015-May-17 17:33N 37°48' W 000°22'2020.3
2015-May-17 16:33N 38°06' W 000°08'2020.3
2015-May-17 15:33N 38°22' E 000°06'2120.5
2015-May-17 14:33N 38°40' E 000°21'2020.0
2015-May-17 13:33N 38°55' E 000°38'2120.8
2015-May-17 12:33N 39°09' E 000°57'2121.0
2015-May-17 11:33N 39°24' E 001°17'2820.5
2015-May-17 10:12N 39°42' E 001°44'1319.8
2015-May-17 09:33N 39°49' E 001°58'2020.0
2015-May-17 08:33N 39°59' E 002°20'2120.8
2015-May-17 07:34N 40°10' E 002°43'2121.1
2015-May-17 06:33N 40°22' E 003°07'2820.7
2015-May-17 05:13N 40°37' E 003°37'26020.0
2015-May-16 16:12N 42°56' E 008°32'1319.8
2015-May-16 15:34N 43°02' E 008°47'2119.8
2015-May-16 14:30N 43°13' E 009°11'1919.8
2015-May-16 13:34N 43°23' E 009°33'2019.6
2015-May-16 12:34N 43°31' E 009°58'1414.3
2015-May-16 11:34N 43°33' E 010°18'2 1.9
2015-May-16 10:33N 43°35' E 010°18'0 0.0
2015-May-16 09:33N 43°35' E 010°18'0 0.0
2015-May-16 08:30N 43°35' E 010°18'0 0.0
2015-May-16 07:33N 43°35' E 010°18'0 0.0
2015-May-16 06:33N 43°35' E 010°18'0 0.0
2015-May-16 05:33N 43°35' E 010°18'0 0.0
2015-May-16 04:33N 43°35' E 010°18'0 0.0
2015-May-16 03:33N 43°35' E 010°18'0 0.0
2015-May-16 02:33N 43°35' E 010°18'0 0.0
2015-May-16 01:33N 43°35' E 010°18'0 0.0
2015-May-16 00:33N 43°35' E 010°18'0 0.0
2015-May-15 23:33N 43°35' E 010°18'0 0.0
2015-May-15 22:33N 43°35' E 010°18'0 0.0
2015-May-15 21:33N 43°35' E 010°18'0 0.0
2015-May-15 20:33N 43°35' E 010°18'4 3.9
2015-May-15 19:33N 43°31' E 010°15'5 4.5
2015-May-15 18:33N 43°27' E 010°13'1 1.1
2015-May-15 17:33N 43°26' E 010°12'1 1.2
2015-May-15 16:33N 43°27' E 010°14'1 1.3
2015-May-15 15:33N 43°28' E 010°15'2 1.7
2015-May-15 14:33N 43°28' E 010°13'2 1.9
2015-May-15 13:33N 43°28' E 010°10'6 5.6
2015-May-15 12:33N 43°29' E 010°03'1515.3
2015-May-15 11:33N 43°35' E 009°43'2020.1
2015-May-15 10:33N 43°49' E 009°23'1717.2
2015-May-15 09:33N 44°02' E 009°07'2 1.8
2015-May-15 08:34N 43°60' E 009°07'1716.5
2015-May-15 07:33N 44°13' E 008°53'1313.1
2015-May-15 06:33N 44°25' E 008°46'0 0.5
2015-May-15 05:32N 44°25' E 008°47'0 0.0
2015-May-15 04:29N 44°25' E 008°47'0 0.0
2015-May-15 03:29N 44°25' E 008°47'0 0.0
2015-May-15 02:32N 44°25' E 008°47'0 0.0
2015-May-15 01:32N 44°25' E 008°47'0 0.0
2015-May-15 00:32N 44°25' E 008°47'0 0.0
2015-May-14 23:32N 44°25' E 008°47'0 0.0
2015-May-14 22:32N 44°25' E 008°47'0 0.0
2015-May-14 21:29N 44°25' E 008°47'0 0.0
2015-May-14 20:32N 44°25' E 008°47'0 0.0
2015-May-14 19:32N 44°25' E 008°47'0 0.0
2015-May-14 18:32N 44°25' E 008°47'0 0.0
2015-May-14 17:33N 44°25' E 008°47'0 0.0
2015-May-14 16:33N 44°25' E 008°47'0 0.0
2015-May-14 15:33N 44°25' E 008°47'4 3.7
2015-May-14 14:33N 44°23' E 008°43'1414.4
2015-May-14 13:33N 44°10' E 008°51'1817.6
2015-May-14 12:33N 43°54' E 009°03'1817.6
2015-May-14 11:33N 43°38' E 009°12'1817.6
2015-May-14 10:33N 43°22' E 009°22'1817.6
2015-May-14 09:33N 43°06' E 009°32'1918.6
2015-May-14 08:32N 42°52' E 009°49'1919.7
2015-May-14 07:33N 42°39' E 010°09'2019.7
2015-May-14 06:33N 42°25' E 010°28'4019.8
2015-May-14 04:32N 41°57' E 011°07'4019.6
2015-May-14 02:30N 41°30' E 011°45'1919.5
2015-May-14 01:33N 41°17' E 012°03'2219.1
2015-May-14 00:24N 41°02' E 012°24'1718.9
2015-May-13 23:30N 40°50' E 012°40'1818.9
2015-May-13 22:33N 40°37' E 012°57'1919.1
2015-May-13 21:33N 40°24' E 013°15'1919.0
2015-May-13 20:33N 40°11' E 013°33'1918.9
2015-May-13 19:33N 39°58' E 013°51'2019.0
2015-May-13 18:32N 39°44' E 014°09'1918.8
2015-May-13 17:33N 39°31' E 014°27'2019.2
2015-May-13 16:31N 39°18' E 014°45'2119.6
2015-May-13 15:27N 39°03' E 015°05'  
Track history (hours):
 
Tides and Currents Weather Stations Pressure Air Temp Water Temp Dewpoint Dewpoint Depression Visibility Wind Speed Wind Dir Waves Ship Positions

MSC Regina

Last reported at 2015-May-23 15:03 UTC. Time now 2015-May-26 11:49 UTC.
Position N 40°04' W 030°49'.

Length 259 m; draft 10.3 m.

Type: Ship (hazmat cat A). MMSI: 357331980.

Date/timePositionNaut miles runAvg speedWind from/ knotsBaromVisibWave heightAir tempDewpointWater temp
2015-May-23 15:03N 40°04' W 030°49'1419.7
2015-May-23 14:22N 40°02' W 030°31'2419.8
2015-May-23 13:10N 39°60' W 030°01'3219.7
2015-May-23 11:33N 39°55' W 029°20'1919.5
2015-May-23 10:33N 39°53' W 028°54'2019.8
2015-May-23 09:33N 39°50' W 028°29'2019.8
2015-May-23 08:33N 39°48' W 028°03'2019.5
2015-May-23 07:32N 39°46' W 027°38'2619.3
2015-May-23 06:10N 39°42' W 027°04'1619.4
2015-May-23 05:20N 39°39' W 026°43'13519.5
2015-May-22 22:23N 39°23' W 023°48'1620.0
2015-May-22 21:33N 39°21' W 023°27'58619.5
2015-May-21 15:33N 38°07' W 011°02'1918.9
2015-May-21 14:33N 38°04' W 010°38'1918.8
2015-May-21 13:33N 38°02' W 010°15'1918.7
2015-May-21 12:33N 37°59' W 009°51'1919.0
2015-May-21 11:33N 37°57' W 009°27'1918.9
2015-May-21 10:33N 37°55' W 009°03'10 9.8
2015-May-21 09:32N 37°56' W 008°51'0 0.0
2015-May-21 08:32N 37°56' W 008°51'0 0.0
2015-May-21 07:32N 37°56' W 008°51'0 0.0
2015-May-21 06:32N 37°56' W 008°51'0 0.0
2015-May-21 05:32N 37°56' W 008°51'0 0.0
2015-May-21 04:32N 37°56' W 008°51'0 0.0
2015-May-21 03:32N 37°56' W 008°51'0 0.0
2015-May-21 02:32N 37°56' W 008°51'0 0.0
2015-May-21 01:32N 37°56' W 008°51'0 0.0
2015-May-21 00:32N 37°56' W 008°51'0 0.0
2015-May-20 23:32N 37°56' W 008°51'0 0.0
2015-May-20 22:32N 37°56' W 008°51'0 0.0
2015-May-20 21:32N 37°56' W 008°51'0 0.0
2015-May-20 20:29N 37°56' W 008°51'0 0.3
2015-May-20 19:33N 37°56' W 008°51'4 4.2
2015-May-20 18:33N 37°51' W 008°52'1 1.2
2015-May-20 17:33N 37°53' W 008°51'0 0.0
2015-May-20 16:33N 37°53' W 008°51'0 0.0
2015-May-20 15:32N 37°53' W 008°51'0 0.0
2015-May-20 14:32N 37°53' W 008°51'0 0.0
2015-May-20 13:32N 37°53' W 008°51'0 0.0
2015-May-20 12:32N 37°53' W 008°51'0 0.0
2015-May-20 11:32N 37°53' W 008°51'0 0.0
2015-May-20 10:32N 37°53' W 008°51'0 0.0
2015-May-20 09:32N 37°53' W 008°51'0 0.0
2015-May-20 08:32N 37°53' W 008°51'0 0.0
2015-May-20 07:32N 37°53' W 008°51'0 0.1
2015-May-20 06:29N 37°53' W 008°52'0 0.0
2015-May-20 05:32N 37°53' W 008°52'0 0.1
2015-May-20 04:32N 37°53' W 008°51'0 0.0
2015-May-20 03:32N 37°53' W 008°52'0 0.1
2015-May-20 02:32N 37°53' W 008°51'0 0.1
2015-May-20 01:32N 37°53' W 008°52'0 0.0
2015-May-20 00:32N 37°53' W 008°51'0 0.0
2015-May-19 23:32N 37°53' W 008°51'0 0.0
2015-May-19 22:32N 37°53' W 008°51'0 0.0
2015-May-19 21:32N 37°53' W 008°52'0 0.0
2015-May-19 20:32N 37°53' W 008°52'0 0.1
2015-May-19 19:32N 37°53' W 008°51'0 0.0
2015-May-19 18:32N 37°53' W 008°51'0 0.0
2015-May-19 17:32N 37°53' W 008°51'0 0.1
2015-May-19 16:32N 37°53' W 008°51'0 0.0
2015-May-19 15:29N 37°53' W 008°51'0 0.0
2015-May-19 14:32N 37°53' W 008°51'0 0.0
2015-May-19 13:32N 37°53' W 008°51'0 0.0
2015-May-19 12:32N 37°53' W 008°51'0 0.1
2015-May-19 11:32N 37°53' W 008°51'0 0.1
2015-May-19 10:32N 37°53' W 008°51'0 0.0
2015-May-19 09:32N 37°53' W 008°51'0 0.1
2015-May-19 08:32N 37°53' W 008°51'3 2.7
2015-May-19 07:33N 37°50' W 008°52'8 7.3
2015-May-19 06:31N 37°43' W 008°56'9 7.0
2015-May-19 05:14N 37°35' W 009°01'5 7.0
2015-May-19 04:32N 37°31' W 009°04'8 7.9
2015-May-19 03:33N 37°24' W 009°08'9 8.0
2015-May-19 02:26N 37°16' W 009°13'11 8.2
2015-May-19 01:07N 37°06' W 009°18'7 6.9
2015-May-19 00:06N 36°59' W 009°21'4 7.0
2015-May-18 23:33N 36°55' W 009°20'15 7.4
2015-May-18 21:30N 36°44' W 009°07'8 8.3
2015-May-18 20:33N 36°41' W 008°58'7 7.4
2015-May-18 19:33N 36°39' W 008°49'7 6.7
2015-May-18 18:33N 36°37' W 008°41'10 7.0
2015-May-18 17:05N 36°33' W 008°29'12 7.6
2015-May-18 15:32N 36°30' W 008°15'12 8.3
2015-May-18 14:08N 36°26' W 008°02'1118.6
2015-May-18 13:34N 36°23' W 007°49'10919.9
2015-May-18 08:05N 35°58' W 005°38'1018.1
2015-May-18 07:33N 36°00' W 005°26'12019.2
2015-May-18 01:18N 36°20' W 002°60'1620.8
2015-May-18 00:33N 36°23' W 002°41'2121.0
2015-May-17 23:33N 36°26' W 002°15'2120.7
2015-May-17 22:33N 36°38' W 001°54'2120.8
2015-May-17 21:33N 36°52' W 001°34'2221.0
2015-May-17 20:29N 37°07' W 001°14'1920.4
2015-May-17 19:33N 37°19' W 000°56'2020.2
2015-May-17 18:33N 37°32' W 000°37'2019.8
2015-May-17 17:33N 37°48' W 000°22'2020.3
2015-May-17 16:33N 38°06' W 000°08'2020.3
2015-May-17 15:33N 38°22' E 000°06'2120.5
2015-May-17 14:33N 38°40' E 000°21'2020.0
2015-May-17 13:33N 38°55' E 000°38'2120.8
2015-May-17 12:33N 39°09' E 000°57'2121.0
2015-May-17 11:33N 39°24' E 001°17'2820.5
2015-May-17 10:12N 39°42' E 001°44'1319.8
2015-May-17 09:33N 39°49' E 001°58'2020.0
2015-May-17 08:33N 39°59' E 002°20'2120.8
2015-May-17 07:34N 40°10' E 002°43'2121.1
2015-May-17 06:33N 40°22' E 003°07'2820.7
2015-May-17 05:13N 40°37' E 003°37'26020.0
2015-May-16 16:12N 42°56' E 008°32'1319.8
2015-May-16 15:34N 43°02' E 008°47'2119.8
2015-May-16 14:30N 43°13' E 009°11'1919.8
2015-May-16 13:34N 43°23' E 009°33'2019.6
2015-May-16 12:34N 43°31' E 009°58'1414.3
2015-May-16 11:34N 43°33' E 010°18'2 1.9
2015-May-16 10:33N 43°35' E 010°18'0 0.0
2015-May-16 09:33N 43°35' E 010°18'0 0.0
2015-May-16 08:30N 43°35' E 010°18'0 0.0
2015-May-16 07:33N 43°35' E 010°18'0 0.0
2015-May-16 06:33N 43°35' E 010°18'0 0.0
2015-May-16 05:33N 43°35' E 010°18'0 0.0
2015-May-16 04:33N 43°35' E 010°18'0 0.0
2015-May-16 03:33N 43°35' E 010°18'0 0.0
2015-May-16 02:33N 43°35' E 010°18'0 0.0
2015-May-16 01:33N 43°35' E 010°18'0 0.0
2015-May-16 00:33N 43°35' E 010°18'0 0.0
2015-May-15 23:33N 43°35' E 010°18'0 0.0
2015-May-15 22:33N 43°35' E 010°18'0 0.0
2015-May-15 21:33N 43°35' E 010°18'0 0.0
2015-May-15 20:33N 43°35' E 010°18'4 3.9
2015-May-15 19:33N 43°31' E 010°15'5 4.5
2015-May-15 18:33N 43°27' E 010°13'1 1.1
2015-May-15 17:33N 43°26' E 010°12'1 1.2
2015-May-15 16:33N 43°27' E 010°14'1 1.3
2015-May-15 15:33N 43°28' E 010°15'2 1.7
2015-May-15 14:33N 43°28' E 010°13'2 1.9
2015-May-15 13:33N 43°28' E 010°10'6 5.6
2015-May-15 12:33N 43°29' E 010°03'1515.3
2015-May-15 11:33N 43°35' E 009°43'2020.1
2015-May-15 10:33N 43°49' E 009°23'1717.2
2015-May-15 09:33N 44°02' E 009°07'2 1.8
2015-May-15 08:34N 43°60' E 009°07'1716.5
2015-May-15 07:33N 44°13' E 008°53'1313.1
2015-May-15 06:33N 44°25' E 008°46'0 0.5
2015-May-15 05:32N 44°25' E 008°47'0 0.0
2015-May-15 04:29N 44°25' E 008°47'0 0.0
2015-May-15 03:29N 44°25' E 008°47'0 0.0
2015-May-15 02:32N 44°25' E 008°47'0 0.0
2015-May-15 01:32N 44°25' E 008°47'0 0.0
2015-May-15 00:32N 44°25' E 008°47'0 0.0
2015-May-14 23:32N 44°25' E 008°47'0 0.0
2015-May-14 22:32N 44°25' E 008°47'0 0.0
2015-May-14 21:29N 44°25' E 008°47'0 0.0
2015-May-14 20:32N 44°25' E 008°47'0 0.0
2015-May-14 19:32N 44°25' E 008°47'0 0.0
2015-May-14 18:32N 44°25' E 008°47'0 0.0
2015-May-14 17:33N 44°25' E 008°47'0 0.0
2015-May-14 16:33N 44°25' E 008°47'0 0.0
2015-May-14 15:33N 44°25' E 008°47'4 3.7
2015-May-14 14:33N 44°23' E 008°43'1414.4
2015-May-14 13:33N 44°10' E 008°51'1817.6
2015-May-14 12:33N 43°54' E 009°03'1817.6
2015-May-14 11:33N 43°38' E 009°12'1817.6
2015-May-14 10:33N 43°22' E 009°22'1817.6
2015-May-14 09:33N 43°06' E 009°32'1918.6
2015-May-14 08:32N 42°52' E 009°49'1919.7
2015-May-14 07:33N 42°39' E 010°09'2019.7
2015-May-14 06:33N 42°25' E 010°28'4019.8
2015-May-14 04:32N 41°57' E 011°07'4019.6
2015-May-14 02:30N 41°30' E 011°45'1919.5
2015-May-14 01:33N 41°17' E 012°03'2219.1
2015-May-14 00:24N 41°02' E 012°24'1718.9
2015-May-13 23:30N 40°50' E 012°40'1818.9
2015-May-13 22:33N 40°37' E 012°57'1919.1
2015-May-13 21:33N 40°24' E 013°15'1919.0
2015-May-13 20:33N 40°11' E 013°33'1918.9
2015-May-13 19:33N 39°58' E 013°51'2019.0
2015-May-13 18:32N 39°44' E 014°09'1918.8
2015-May-13 17:33N 39°31' E 014°27'2019.2
2015-May-13 16:31N 39°18' E 014°45'2119.6
2015-May-13 15:27N 39°03' E 015°05'  

Dump ship's entire track history